Time;durP1;ratioP1;P1;durP2;ratioP2;P2;SDS_P1;SDS_P2;PMS_P1;PMS_P2;Temp;Humidity;BMP_temperature;BMP_pressure;BME280_temperature;BME280_humidity;BME280_pressure;Samples;Min_cycle;Max_cycle;Signal;HPM_P1;HPM_P2
2023/05/24 00:00:27;;;;;;;8.73;6.38;;;;;;;23.12;61.30;100459.25;5047658;28;20072;-78
2023/05/24 00:02:56;;;;;;;9.43;5.85;;;;;;;23.12;61.28;100452.88;5053850;28;20045;-78
2023/05/24 00:05:24;;;;;;;8.98;6.22;;;;;;;22.92;62.56;100452.91;5036133;28;20045;-78
2023/05/24 00:07:52;;;;;;;9.80;6.28;;;;;;;22.86;62.35;100448.81;5053843;28;20051;-78
2023/05/24 00:10:20;;;;;;;8.30;6.10;;;;;;;23.03;62.82;100458.69;5053727;28;20041;-78
2023/05/24 00:12:48;;;;;;;6.75;5.65;;;;;;;22.95;63.75;100454.94;5051363;28;20049;-78
2023/05/24 00:15:16;;;;;;;7.63;6.78;;;;;;;22.91;63.86;100451.28;5053509;28;20041;-78
2023/05/24 00:17:44;;;;;;;10.02;7.00;;;;;;;22.66;65.51;100454.34;5035881;28;20388;-78
2023/05/24 00:20:13;;;;;;;8.07;6.63;;;;;;;22.59;65.99;100454.22;5053644;28;20052;-78
2023/05/24 00:22:41;;;;;;;11.40;7.55;;;;;;;22.61;66.59;100455.47;5035815;28;20048;-78
2023/05/24 00:25:09;;;;;;;12.65;7.65;;;;;;;22.62;66.71;100453.50;5053501;28;20052;-78
2023/05/24 00:27:37;;;;;;;11.13;7.45;;;;;;;22.72;66.54;100446.53;5035785;28;20045;-79
2023/05/24 00:30:06;;;;;;;10.60;7.63;;;;;;;22.55;66.21;100448.56;5053412;28;20369;-78
2023/05/24 00:32:34;;;;;;;12.05;8.25;;;;;;;22.54;68.13;100458.09;5035155;28;20045;-78
2023/05/24 00:35:03;;;;;;;10.05;7.57;;;;;;;22.48;67.89;100460.31;5053160;28;20037;-78
2023/05/24 00:37:31;;;;;;;9.88;7.47;;;;;;;22.32;68.73;100459.56;5034887;28;20060;-78
2023/05/24 00:39:59;;;;;;;14.52;8.35;;;;;;;22.20;68.95;100455.75;5053223;28;20128;-78
2023/05/24 00:42:27;;;;;;;11.63;8.25;;;;;;;22.22;69.47;100460.94;5051659;28;20056;-78
2023/05/24 00:44:55;;;;;;;12.10;8.60;;;;;;;22.38;69.29;100458.13;5053030;28;20040;-78
2023/05/24 00:47:23;;;;;;;10.88;7.90;;;;;;;22.39;69.73;100459.75;5051155;28;20053;-78
2023/05/24 00:49:51;;;;;;;15.57;8.93;;;;;;;22.35;68.94;100450.47;5053021;28;20389;-78
2023/05/24 00:52:20;;;;;;;13.10;8.45;;;;;;;22.31;70.33;100457.94;5035196;28;20052;-78
2023/05/24 00:54:48;;;;;;;12.57;8.45;;;;;;;22.33;69.89;100453.63;5052853;28;20059;-78
2023/05/24 00:57:17;;;;;;;12.60;8.90;;;;;;;22.20;69.78;100449.34;5034990;28;20048;-78
2023/05/24 00:59:48;;;;;;;13.43;8.68;;;;;;;22.17;70.41;100453.66;5052371;28;20060;-78
2023/05/24 01:02:17;;;;;;;12.63;8.57;;;;;;;22.31;69.97;100441.22;5052660;28;20045;-78
2023/05/24 01:04:47;;;;;;;11.10;8.05;;;;;;;22.16;70.53;100443.69;5052790;28;20056;-78
2023/05/24 01:07:49;;;;;;;12.80;8.27;;;;;;;22.35;69.48;100442.94;5018569;28;20036;-77
2023/05/24 01:10:43;;;;;;;10.25;9.15;;;;;;;22.32;69.40;100446.44;5052642;28;20399;-77
2023/05/24 01:13:25;;;;;;;10.55;7.75;;;;;;;22.24;69.89;100439.91;5034865;28;20049;-77
2023/05/24 01:15:59;;;;;;;14.88;8.65;;;;;;;22.26;69.67;100434.78;5052353;28;20052;-78
2023/05/24 01:18:33;;;;;;;12.68;8.90;;;;;;;22.24;69.93;100431.53;5050809;28;20053;-78
2023/05/24 01:21:10;;;;;;;13.60;8.50;;;;;;;22.24;70.11;100437.09;5017772;28;20049;-78
2023/05/24 01:23:54;;;;;;;13.10;8.32;;;;;;;22.14;69.31;100435.69;5052108;28;20056;-78
2023/05/24 01:26:41;;;;;;;10.25;8.38;;;;;;;21.97;71.86;100439.69;5034551;28;20056;-77
2023/05/24 01:29:10;;;;;;;11.13;8.80;;;;;;;21.74;71.85;100426.41;5034183;28;20045;-78
2023/05/24 01:31:38;;;;;;;15.02;8.60;;;;;;;21.88;72.06;100436.28;5034481;28;20053;-78
2023/05/24 01:34:06;;;;;;;11.27;8.05;;;;;;;21.74;71.13;100432.00;5034549;28;20395;-78
2023/05/24 01:36:34;;;;;;;12.13;8.73;;;;;;;22.01;71.26;100435.00;5052123;28;20056;-77
2023/05/24 01:39:04;;;;;;;12.70;7.95;;;;;;;21.88;70.91;100425.13;5034348;28;20037;-78
2023/05/24 01:41:42;;;;;;;10.93;8.23;;;;;;;21.83;70.34;100429.00;5052513;28;20049;-77
2023/05/24 01:44:37;;;;;;;15.32;8.10;;;;;;;21.97;70.44;100422.97;5035013;28;20049;-77
2023/05/24 01:47:47;;;;;;;10.43;7.65;;;;;;;22.07;69.96;100429.16;5048206;28;20060;-78
2023/05/24 01:50:40;;;;;;;11.30;7.97;;;;;;;22.05;69.76;100432.31;5034095;28;20048;-78
2023/05/24 01:53:11;;;;;;;13.45;7.75;;;;;;;21.72;69.79;100434.34;5034218;28;20053;-78
2023/05/24 01:55:41;;;;;;;9.50;7.80;;;;;;;21.84;69.62;100433.41;5051832;28;20052;-78
2023/05/24 01:58:09;;;;;;;12.38;7.20;;;;;;;21.87;69.53;100434.66;5034073;28;20052;-78
2023/05/24 02:00:40;;;;;;;9.95;7.78;;;;;;;21.61;70.13;100427.66;5051930;28;20037;-78
2023/05/24 02:03:09;;;;;;;9.60;7.85;;;;;;;21.56;70.95;100419.56;5051731;28;20056;-78
2023/05/24 02:05:37;;;;;;;10.82;8.20;;;;;;;21.57;71.40;100421.19;5051993;28;20052;-77
2023/05/24 02:08:05;;;;;;;11.25;7.80;;;;;;;21.59;70.90;100421.63;5051848;28;20415;-77
2023/05/24 02:10:33;;;;;;;10.23;7.53;;;;;;;21.63;70.76;100419.75;5051808;28;20049;-77
2023/05/24 02:13:01;;;;;;;10.45;7.35;;;;;;;21.61;71.59;100428.44;5034038;28;20511;-78
2023/05/24 02:15:29;;;;;;;10.75;8.00;;;;;;;21.64;71.49;100426.94;5051666;28;20484;-78
2023/05/24 02:18:00;;;;;;;10.10;7.40;;;;;;;21.74;70.65;100440.34;5034038;28;20048;-78
2023/05/24 02:20:29;;;;;;;8.60;7.70;;;;;;;21.61;71.07;100428.44;5018345;28;20049;-77
2023/05/24 02:22:59;;;;;;;9.18;7.53;;;;;;;21.56;71.62;100434.28;5051694;28;20041;-77
2023/05/24 02:25:27;;;;;;;10.48;7.28;;;;;;;21.62;72.09;100437.63;5051396;28;20060;-77
2023/05/24 02:27:55;;;;;;;11.02;8.13;;;;;;;21.21;73.54;100437.75;5052332;28;20037;-77
2023/05/24 02:30:23;;;;;;;10.80;7.45;;;;;;;21.59;72.88;100429.97;5034337;28;20041;-77
2023/05/24 02:32:51;;;;;;;10.40;8.27;;;;;;;21.66;72.14;100430.19;5051723;28;20071;-77
2023/05/24 02:35:19;;;;;;;11.80;7.93;;;;;;;21.86;71.39;100435.84;5052043;28;20045;-77
2023/05/24 02:37:47;;;;;;;10.45;7.65;;;;;;;21.91;70.94;100430.00;5055304;28;20045;-77
2023/05/24 02:40:15;;;;;;;11.43;8.40;;;;;;;21.83;71.67;100433.75;5037686;28;20049;-77
2023/05/24 02:42:43;;;;;;;13.82;9.23;;;;;;;21.73;71.18;100435.94;5037279;28;20053;-77
2023/05/24 02:45:11;;;;;;;10.48;8.30;;;;;;;21.51;72.51;100433.75;5055259;28;20053;-77
2023/05/24 02:47:39;;;;;;;10.88;8.65;;;;;;;21.41;72.46;100440.66;5054868;28;20048;-77
2023/05/24 02:50:07;;;;;;;12.13;8.15;;;;;;;21.35;73.87;100443.72;5055194;28;20041;-77
2023/05/24 02:52:35;;;;;;;11.68;8.77;;;;;;;21.42;73.46;100445.06;5055271;28;20056;-77
2023/05/24 02:55:05;;;;;;;12.90;9.65;;;;;;;21.22;73.34;100436.63;5036621;28;20060;-77
2023/05/24 02:57:34;;;;;;;13.93;9.88;;;;;;;21.39;73.72;100438.25;5037761;28;20049;-77
2023/05/24 03:00:02;;;;;;;13.95;9.70;;;;;;;21.43;73.24;100433.59;5037397;28;20048;-77
2023/05/24 03:02:32;;;;;;;17.83;10.95;;;;;;;21.37;74.35;100440.56;5036644;28;20061;-78
2023/05/24 03:05:01;;;;;;;17.42;11.45;;;;;;;21.38;74.28;100444.97;5020550;28;20053;-77
2023/05/24 03:07:29;;;;;;;16.38;11.00;;;;;;;21.21;75.53;100433.00;5054792;28;20033;-77
2023/05/24 03:09:57;;;;;;;27.90;10.55;;;;;;;21.19;76.19;100446.47;5054816;28;20049;-77
2023/05/24 03:12:26;;;;;;;26.42;10.27;;;;;;;21.08;76.48;100425.91;5036976;28;20049;-77
2023/05/24 03:14:53;;;;;;;21.95;10.40;;;;;;;21.15;76.47;100423.31;5036869;28;20041;-77
2023/05/24 03:17:21;;;;;;;14.70;11.15;;;;;;;21.12;76.49;100432.34;5054692;28;20558;-77
2023/05/24 03:19:51;;;;;;;18.50;10.50;;;;;;;21.17;75.90;100436.88;5037362;28;20037;-77
2023/05/24 03:22:19;;;;;;;13.93;9.93;;;;;;;21.30;75.59;100437.59;5037165;28;20045;-77
2023/05/24 03:24:47;;;;;;;15.02;9.50;;;;;;;21.28;75.26;100434.38;5037212;28;20038;-77
2023/05/24 03:27:16;;;;;;;13.57;10.05;;;;;;;21.26;75.62;100445.84;5037154;28;20519;-77
2023/05/24 03:29:44;;;;;;;17.13;9.10;;;;;;;21.35;74.92;100437.31;5036589;28;20045;-77
2023/05/24 03:32:13;;;;;;;15.00;9.48;;;;;;;21.37;74.88;100446.16;5036770;28;20044;-76
2023/05/24 03:34:41;;;;;;;15.88;9.98;;;;;;;21.26;75.72;100439.50;5036511;28;20134;-77
2023/05/24 03:37:09;;;;;;;14.52;9.63;;;;;;;21.16;75.65;100457.50;5036567;28;20040;-77
2023/05/24 03:39:38;;;;;;;16.02;9.95;;;;;;;21.15;76.13;100465.03;5036565;28;20045;-77
2023/05/24 03:42:18;;;;;;;14.57;9.85;;;;;;;21.16;76.57;100463.88;5038300;28;20056;-77
2023/05/24 03:44:46;;;;;;;16.58;10.27;;;;;;;21.11;77.32;100469.69;5054207;28;20396;-77
2023/05/24 03:47:14;;;;;;;15.48;9.63;;;;;;;21.24;76.41;100473.22;5019894;28;20380;-77
2023/05/24 03:49:42;;;;;;;14.88;9.73;;;;;;;21.06;77.01;100469.94;5054160;28;20048;-77
2023/05/24 03:52:10;;;;;;;14.75;10.45;;;;;;;21.15;77.10;100480.91;5019897;28;20790;-77
2023/05/24 03:54:38;;;;;;;16.52;10.00;;;;;;;20.89;78.39;100477.44;5053931;28;20045;-77
2023/05/24 03:57:06;;;;;;;14.93;9.77;;;;;;;20.84;78.28;100472.09;5052614;28;20040;-77
2023/05/24 03:59:35;;;;;;;15.18;10.15;;;;;;;20.99;77.74;100481.69;5036155;28;20037;-77
2023/05/24 04:02:06;;;;;;;13.73;10.23;;;;;;;21.12;77.42;100478.84;5036701;28;20052;-77
2023/05/24 04:04:35;;;;;;;16.05;9.80;;;;;;;21.20;77.24;100489.81;5036125;28;20055;-77
2023/05/24 04:07:04;;;;;;;16.33;10.32;;;;;;;21.08;78.23;100484.31;5053750;28;20052;-77
2023/05/24 04:09:31;;;;;;;14.43;9.43;;;;;;;20.94;78.21;100485.53;5053677;28;20041;-77
2023/05/24 04:11:59;;;;;;;14.32;10.55;;;;;;;21.02;78.26;100480.19;5053663;28;20072;-77
2023/05/24 04:14:27;;;;;;;14.85;9.13;;;;;;;20.96;78.38;100487.16;5035690;28;20399;-77
2023/05/24 04:16:56;;;;;;;16.52;10.45;;;;;;;20.85;78.49;100487.66;5035939;28;20060;-77
2023/05/24 04:19:24;;;;;;;14.50;9.60;;;;;;;20.68;79.97;100483.94;5035597;28;20068;-77
2023/05/24 04:21:52;;;;;;;13.77;9.73;;;;;;;20.81;79.71;100481.13;5035401;28;20056;-77
2023/05/24 04:24:20;;;;;;;16.50;10.27;;;;;;;20.79;79.26;100481.50;5035130;28;20045;-76
2023/05/24 04:26:48;;;;;;;16.10;9.77;;;;;;;20.94;78.35;100490.28;5052397;28;20037;-76
2023/05/24 04:29:17;;;;;;;12.15;9.30;;;;;;;20.93;79.33;100477.53;5035341;28;20045;-77
2023/05/24 04:31:47;;;;;;;14.40;8.05;;;;;;;21.11;78.29;100493.94;5045969;28;20045;-77
2023/05/24 04:34:15;;;;;;;11.73;8.80;;;;;;;20.75;78.35;100490.88;5015680;28;20404;-77
2023/05/24 04:36:44;;;;;;;12.95;8.95;;;;;;;20.99;78.30;100497.56;5015696;28;20044;-83
2023/05/24 04:39:12;;;;;;;11.43;8.43;;;;;;;20.99;78.11;100486.44;5033755;28;20054;-83
2023/05/24 04:41:40;;;;;;;17.60;9.77;;;;;;;21.08;76.50;100495.44;5033762;28;20484;-85
2023/05/24 04:44:08;;;;;;;13.93;9.05;;;;;;;21.05;76.70;100494.19;5033124;28;20053;-86
2023/05/24 04:46:36;;;;;;;12.73;9.85;;;;;;;20.94;77.12;100490.28;5031710;28;20028;-85
2023/05/24 04:49:07;;;;;;;17.02;9.93;;;;;;;21.02;77.29;100496.88;5052471;28;20059;-85
2023/05/24 04:51:37;;;;;;;16.48;9.52;;;;;;;20.99;77.95;100506.72;5052868;28;20044;-86
2023/05/24 04:54:07;;;;;;;19.02;10.18;;;;;;;21.07;77.46;100510.53;5050233;28;20037;-84
2023/05/24 04:56:37;;;;;;;13.52;8.93;;;;;;;21.09;76.62;100513.75;5053027;28;20044;-84
2023/05/24 04:59:06;;;;;;;15.98;9.98;;;;;;;21.16;75.97;100508.38;5052313;28;20049;-81
2023/05/24 05:01:35;;;;;;;14.05;9.25;;;;;;;21.23;75.96;100518.09;5052514;28;20502;-80
2023/05/24 05:04:03;;;;;;;15.15;10.15;;;;;;;21.32;76.70;100510.41;5043517;28;20060;-80
2023/05/24 05:06:33;;;;;;;11.70;8.38;;;;;;;21.14;75.75;100505.16;5051019;28;20403;-81
2023/05/24 05:09:02;;;;;;;14.95;9.80;;;;;;;21.33;75.34;100517.59;5047799;28;20061;-81
2023/05/24 05:11:30;;;;;;;13.40;9.23;;;;;;;21.36;75.21;100516.88;5038632;28;20056;-81
2023/05/24 05:13:59;;;;;;;17.02;9.40;;;;;;;21.53;74.65;100514.94;5042617;28;20044;-81
2023/05/24 05:16:27;;;;;;;12.05;9.10;;;;;;;21.44;73.87;100515.91;5015512;28;20048;-81
2023/05/24 05:18:55;;;;;;;12.50;9.07;;;;;;;21.61;73.56;100517.56;5044515;28;20060;-80
2023/05/24 05:21:24;;;;;;;17.88;9.32;;;;;;;21.81;72.90;100522.47;5048964;28;20049;-79
2023/05/24 05:23:53;;;;;;;17.60;9.85;;;;;;;21.75;73.85;100525.50;5052266;28;20052;-79
2023/05/24 05:26:21;;;;;;;13.93;9.35;;;;;;;21.83;73.27;100522.91;5051083;28;20072;-79
2023/05/24 05:28:50;;;;;;;15.05;9.35;;;;;;;21.75;73.75;100527.47;5052090;28;20502;-88
2023/05/24 05:31:18;;;;;;;13.57;8.80;;;;;;;21.88;73.34;100529.03;5052263;28;20044;-82
2023/05/24 05:33:45;;;;;;;15.40;9.85;;;;;;;21.99;73.00;100525.69;5052348;28;20051;-82
2023/05/24 05:36:14;;;;;;;12.63;9.18;;;;;;;22.11;71.65;100522.00;5034245;28;20060;-81
2023/05/24 05:38:42;;;;;;;12.82;8.70;;;;;;;22.20;71.27;100531.00;5051120;28;20045;-82
2023/05/24 05:41:10;;;;;;;15.00;9.73;;;;;;;22.25;71.11;100524.31;5046557;28;20041;-82
2023/05/24 05:43:38;;;;;;;12.82;8.95;;;;;;;22.39;70.31;100526.66;5051520;28;20045;-82
2023/05/24 05:46:06;;;;;;;13.18;9.10;;;;;;;22.45;70.66;100525.19;5050344;28;20488;-86
2023/05/24 05:48:34;;;;;;;13.55;9.45;;;;;;;22.56;70.01;100536.63;5051630;28;20057;-86
2023/05/24 05:51:02;;;;;;;19.92;10.35;;;;;;;22.54;68.93;100525.81;5034045;28;20045;-86
2023/05/24 05:53:32;;;;;;;13.55;9.40;;;;;;;22.53;69.23;100531.78;5052038;28;20045;-86
2023/05/24 05:56:01;;;;;;;14.35;9.95;;;;;;;22.36;69.87;100535.72;5051906;28;20476;-87
2023/05/24 05:58:28;;;;;;;16.63;10.52;;;;;;;22.33;70.17;100530.88;5052249;28;20048;-87
2023/05/24 06:00:56;;;;;;;16.65;10.20;;;;;;;22.39;69.42;100541.38;5051787;28;20045;-87
2023/05/24 06:03:24;;;;;;;16.13;11.05;;;;;;;22.43;70.45;100530.31;5050827;28;20049;-86
2023/05/24 06:05:53;;;;;;;16.40;10.27;;;;;;;22.58;69.16;100539.84;5050933;28;20048;-86
2023/05/24 06:08:21;;;;;;;16.60;10.63;;;;;;;22.40;69.74;100539.41;5052002;28;20045;-86
2023/05/24 06:10:49;;;;;;;16.17;9.90;;;;;;;22.62;68.61;100542.72;5052250;28;20049;-86
2023/05/24 06:13:19;;;;;;;15.75;10.68;;;;;;;22.64;69.21;100548.75;5056120;28;20061;-86
2023/05/24 06:15:48;;;;;;;14.73;10.00;;;;;;;22.75;67.60;100541.44;5055848;28;20059;-86
2023/05/24 06:18:16;;;;;;;13.00;9.18;;;;;;;22.86;67.80;100524.91;5055771;28;20052;-86
2023/05/24 06:20:45;;;;;;;14.85;10.07;;;;;;;22.96;67.86;100540.25;5055967;28;20048;-86
2023/05/24 06:23:13;;;;;;;13.20;9.70;;;;;;;22.94;69.21;100537.03;5055712;28;20373;-86
2023/05/24 06:25:42;;;;;;;13.82;9.85;;;;;;;23.02;67.35;100546.38;5055589;28;20041;-85
2023/05/24 06:28:10;;;;;;;15.65;10.05;;;;;;;23.05;67.64;100534.47;5037636;28;20049;-86
2023/05/24 06:30:38;;;;;;;14.95;10.07;;;;;;;23.15;66.99;100533.06;5054271;28;20052;-86
2023/05/24 06:33:06;;;;;;;14.50;10.52;;;;;;;23.26;66.24;100542.47;5055508;28;20578;-86
2023/05/24 06:35:34;;;;;;;18.65;10.10;;;;;;;23.31;65.64;100542.19;5054476;28;20060;-87
2023/05/24 06:38:02;;;;;;;16.02;9.13;;;;;;;23.38;65.04;100543.50;5055461;28;20052;-87
2023/05/24 06:40:30;;;;;;;13.27;9.10;;;;;;;23.49;64.32;100547.31;5054115;28;20056;-81
2023/05/24 06:42:58;;;;;;;14.15;9.80;;;;;;;23.59;64.65;100546.72;5053643;28;20391;-81
2023/05/24 06:45:26;;;;;;;15.90;9.30;;;;;;;23.65;63.94;100538.03;5035582;28;20041;-81
2023/05/24 06:47:54;;;;;;;15.43;9.32;;;;;;;23.75;64.16;100545.78;5053955;28;20491;-81
2023/05/24 06:50:24;;;;;;;14.27;9.80;;;;;;;23.83;64.45;100555.94;5036031;28;20056;-81
2023/05/24 06:52:51;;;;;;;17.08;10.10;;;;;;;23.94;63.85;100549.72;5037457;28;20411;-81
2023/05/24 06:55:20;;;;;;;13.18;8.98;;;;;;;23.87;65.03;100539.22;5055088;28;20048;-81
2023/05/24 06:57:48;;;;;;;13.70;9.55;;;;;;;23.96;64.73;100544.56;5055269;28;20048;-81
2023/05/24 07:00:16;;;;;;;17.55;10.18;;;;;;;23.99;64.04;100550.22;5054755;28;20404;-82
2023/05/24 07:02:44;;;;;;;21.75;10.13;;;;;;;24.09;63.95;100548.00;5054612;28;20052;-81
2023/05/24 07:05:12;;;;;;;16.27;10.55;;;;;;;24.06;64.61;100546.75;5036675;28;20048;-82
2023/05/24 07:07:42;;;;;;;15.23;9.90;;;;;;;24.05;64.25;100539.50;5054545;28;20053;-81
2023/05/24 07:10:11;;;;;;;13.68;9.50;;;;;;;24.22;62.88;100549.41;5036635;28;20049;-81
2023/05/24 07:12:39;;;;;;;17.42;10.23;;;;;;;24.31;63.36;100549.16;5054358;28;20044;-81
2023/05/24 07:15:08;;;;;;;15.73;10.27;;;;;;;24.27;63.99;100553.88;5054203;28;20044;-81
2023/05/24 07:17:36;;;;;;;14.55;10.02;;;;;;;24.24;63.66;100546.25;5054351;28;20060;-81
2023/05/24 07:20:09;;;;;;;18.45;10.70;;;;;;;24.28;63.31;100544.31;5054408;28;20049;-81
2023/05/24 07:22:37;;;;;;;17.23;10.32;;;;;;;24.32;60.68;100547.16;5053616;28;20053;-81
2023/05/24 07:25:05;;;;;;;16.45;10.23;;;;;;;24.45;61.10;100547.75;5054237;28;20052;-82
2023/05/24 07:27:33;;;;;;;16.52;10.27;;;;;;;24.47;59.49;100537.81;5054176;28;20056;-81
2023/05/24 07:30:02;;;;;;;15.63;10.57;;;;;;;24.44;59.74;100555.34;5053743;28;20484;-81
2023/05/24 07:32:32;;;;;;;15.38;10.75;;;;;;;24.39;60.71;100538.91;5053598;28;20045;-81
2023/05/24 07:35:01;;;;;;;13.73;9.13;;;;;;;24.51;59.02;100547.06;5053868;28;20041;-81
2023/05/24 07:37:28;;;;;;;16.30;9.85;;;;;;;24.42;58.46;100538.13;5054201;28;20044;-81
2023/05/24 07:39:56;;;;;;;14.18;9.30;;;;;;;24.54;59.84;100542.72;5054063;28;20077;-82
2023/05/24 07:42:25;;;;;;;15.48;9.02;;;;;;;24.59;59.51;100534.00;5053664;28;20384;-81
2023/05/24 07:44:52;;;;;;;13.30;8.90;;;;;;;24.68;56.78;100544.91;5053574;28;20045;-81
2023/05/24 07:47:20;;;;;;;13.90;9.93;;;;;;;24.82;59.11;100549.91;5053846;28;20049;-81
2023/05/24 07:49:48;;;;;;;15.63;9.48;;;;;;;24.85;57.99;100543.56;5053865;28;20045;-82
2023/05/24 07:52:16;;;;;;;16.27;10.48;;;;;;;24.83;58.22;100534.75;5053627;28;20045;-82
2023/05/24 07:54:45;;;;;;;15.23;10.40;;;;;;;24.70;59.58;100539.72;5053663;28;20044;-81
2023/05/24 07:57:13;;;;;;;16.27;9.90;;;;;;;24.91;59.47;100542.03;5053937;28;20045;-83
2023/05/24 07:59:41;;;;;;;18.27;11.15;;;;;;;24.94;59.71;100552.47;5053833;28;20049;-83
2023/05/24 08:02:10;;;;;;;19.35;11.25;;;;;;;25.03;59.09;100554.19;5053761;28;20045;-83
2023/05/24 08:04:39;;;;;;;18.75;11.60;;;;;;;24.95;60.80;100556.91;5053619;28;20045;-85
2023/05/24 08:07:07;;;;;;;14.50;10.10;;;;;;;24.87;58.67;100559.97;5034987;28;20076;-84
2023/05/24 08:09:37;;;;;;;17.63;9.70;;;;;;;25.01;57.70;100556.53;5053477;28;20403;-84
2023/05/24 08:12:06;;;;;;;12.57;9.02;;;;;;;25.06;58.31;100556.22;5035829;28;20052;-82
2023/05/24 08:14:34;;;;;;;11.18;8.88;;;;;;;25.06;57.76;100559.81;5053368;28;20407;-83
2023/05/24 08:17:02;;;;;;;12.57;9.00;;;;;;;25.12;56.67;100546.28;5053414;28;20055;-83
2023/05/24 08:19:34;;;;;;;12.68;8.75;;;;;;;25.12;58.34;100551.88;5053429;28;20048;-83
2023/05/24 08:22:05;;;;;;;19.50;8.82;;;;;;;25.15;57.75;100548.34;5053306;28;20380;-87
2023/05/24 08:24:33;;;;;;;13.35;8.88;;;;;;;25.17;58.05;100556.34;5053125;28;20051;-86
2023/05/24 08:27:03;;;;;;;11.95;7.63;;;;;;;25.34;57.75;100549.34;5052873;28;20053;-83
2023/05/24 08:29:31;;;;;;;8.80;7.82;;;;;;;25.41;59.73;100549.41;5052581;28;20041;-82
2023/05/24 08:31:59;;;;;;;10.13;7.60;;;;;;;25.45;58.11;100550.28;5035159;28;20044;-82
2023/05/24 08:34:28;;;;;;;9.13;7.93;;;;;;;25.46;59.35;100560.28;5033705;28;20056;-83
2023/05/24 08:36:56;;;;;;;10.88;6.72;;;;;;;25.61;59.06;100544.47;5052504;28;20407;-82
2023/05/24 08:39:24;;;;;;;9.82;6.90;;;;;;;25.72;58.06;100547.34;5035182;28;20048;-82
2023/05/24 08:41:52;;;;;;;10.75;6.88;;;;;;;25.69;58.14;100558.53;5052588;28;20120;-82
2023/05/24 08:44:57;;;;;;;9.77;5.68;;;;;;;25.75;56.92;100554.19;5035090;28;20041;-83
2023/05/24 08:47:26;;;;;;;7.78;5.80;;;;;;;25.72;56.42;100558.56;5052746;28;20037;-83
2023/05/24 08:49:54;;;;;;;8.65;5.72;;;;;;;25.81;55.45;100566.66;5052665;28;20056;-83
2023/05/24 08:52:22;;;;;;;9.07;6.10;;;;;;;25.76;54.49;100562.22;5033932;28;20408;-83
2023/05/24 08:54:52;;;;;;;8.73;5.50;;;;;;;25.81;54.61;100561.06;5052434;28;20076;-83
2023/05/24 08:57:21;;;;;;;6.55;5.05;;;;;;;25.93;56.59;100559.16;5052599;28;20049;-82
2023/05/24 08:59:49;;;;;;;5.90;4.55;;;;;;;25.91;55.01;100559.56;5052431;28;20400;-83
2023/05/24 09:02:17;;;;;;;6.05;4.85;;;;;;;26.06;54.01;100570.91;5052329;28;20048;-84
2023/05/24 09:04:48;;;;;;;8.60;5.10;;;;;;;25.99;54.13;100566.03;5052349;28;20663;-85
2023/05/24 09:07:18;;;;;;;8.98;5.22;;;;;;;25.94;54.09;100563.59;5034559;28;20064;-85
2023/05/24 09:09:49;;;;;;;6.13;4.85;;;;;;;25.88;54.20;100560.31;5052286;28;20041;-83
2023/05/24 09:12:20;;;;;;;10.35;5.15;;;;;;;25.83;53.97;100558.69;5052323;28;20040;-84
2023/05/24 09:15:05;;;;;;;8.55;5.22;;;;;;;25.92;53.93;100565.97;5052373;28;20495;-84
2023/05/24 09:17:35;;;;;;;7.07;5.03;;;;;;;25.92;53.09;100555.56;5052302;28;20049;-84
2023/05/24 09:20:07;;;;;;;7.28;5.30;;;;;;;25.92;52.02;100561.19;5052217;28;20074;-84
2023/05/24 09:22:37;;;;;;;6.40;5.07;;;;;;;26.01;53.72;100558.03;5052119;28;20594;-84
2023/05/24 09:25:11;;;;;;;10.65;5.40;;;;;;;26.25;53.31;100556.66;5052113;28;20049;-84
2023/05/24 09:27:40;;;;;;;9.95;6.80;;;;;;;26.04;54.04;100551.66;5051900;28;20053;-83
2023/05/24 09:30:09;;;;;;;7.53;5.10;;;;;;;26.26;53.36;100555.47;5052123;28;20391;-83
2023/05/24 09:32:37;;;;;;;7.70;5.63;;;;;;;26.18;51.13;100553.78;5051924;28;20048;-84
2023/05/24 09:35:09;;;;;;;7.53;6.00;;;;;;;26.17;51.46;100561.38;5034167;28;20135;-84
2023/05/24 09:37:37;;;;;;;8.85;6.35;;;;;;;26.13;53.08;100554.13;5052065;28;20045;-84
2023/05/24 09:40:07;;;;;;;9.45;5.82;;;;;;;26.12;51.57;100546.91;5051853;28;20036;-84
2023/05/24 09:42:36;;;;;;;6.95;5.50;;;;;;;26.21;51.21;100566.22;5030661;28;20053;-84
2023/05/24 09:45:09;;;;;;;9.02;6.25;;;;;;;26.08;52.54;100558.09;5031728;28;20045;-84
2023/05/24 09:47:40;;;;;;;8.35;5.55;;;;;;;26.19;51.73;100563.78;5032113;28;20046;-84
2023/05/24 09:50:13;;;;;;;7.55;5.18;;;;;;;26.38;51.99;100556.34;5031886;28;20046;-84
2023/05/24 09:52:44;;;;;;;7.68;5.70;;;;;;;26.34;51.71;100552.72;5032136;28;20049;-84
2023/05/24 09:55:16;;;;;;;11.02;6.00;;;;;;;26.11;51.72;100559.31;5030645;28;20060;-84
2023/05/24 09:57:50;;;;;;;8.10;6.07;;;;;;;26.17;52.17;100552.16;5031887;28;20041;-84
2023/05/24 10:00:24;;;;;;;13.27;6.90;;;;;;;26.20;51.49;100559.78;5031930;28;20503;-84
2023/05/24 10:03:01;;;;;;;;;;;;;;;26.26;51.85;100568.69;5032310;28;20053;-84
2023/05/24 10:05:30;;;;;;;7.68;6.30;;;;;;;26.38;50.99;100559.97;5031708;28;19928;-84
2023/05/24 10:07:59;;;;;;;10.23;6.22;;;;;;;26.32;52.38;100552.28;5030409;28;20050;-84
2023/05/24 10:10:29;;;;;;;10.52;6.00;;;;;;;26.58;50.89;100554.06;5031909;28;20057;-83
2023/05/24 10:13:00;;;;;;;8.32;6.13;;;;;;;26.82;51.15;100549.00;5031706;28;20049;-84
2023/05/24 10:15:29;;;;;;;11.23;6.32;;;;;;;27.02;51.71;100545.91;5031518;28;20115;-84
2023/05/24 10:17:59;;;;;;;10.10;5.88;;;;;;;26.86;50.29;100546.19;5031668;28;20064;-83
2023/05/24 10:20:27;;;;;;;9.10;6.15;;;;;;;26.86;51.25;100552.63;5031668;28;20492;-84
2023/05/24 10:23:02;;;;;;;10.88;6.88;;;;;;;26.86;50.94;100549.81;5014110;28;20041;-84
2023/05/24 10:25:33;;;;;;;8.48;6.55;;;;;;;26.85;51.24;100545.41;5031862;28;20041;-84
2023/05/24 10:28:06;;;;;;;11.45;6.47;;;;;;;26.92;51.06;100537.03;5031691;28;20050;-83
2023/05/24 10:31:25;;;;;;;8.00;5.90;;;;;;;26.90;50.92;100544.22;5031664;28;20060;-85
2023/05/24 10:33:57;;;;;;;10.40;6.25;;;;;;;26.73;50.25;100546.53;5029115;28;20058;-83
2023/05/24 10:36:35;;;;;;;6.65;5.38;;;;;;;26.75;50.76;100544.16;5031672;28;20365;-83
2023/05/24 10:39:06;;;;;;;7.85;6.25;;;;;;;26.84;50.05;100547.41;5031484;28;20406;-83
2023/05/24 10:41:39;;;;;;;9.43;5.70;;;;;;;27.01;49.09;100549.91;5041412;28;20052;-83
2023/05/24 10:44:12;;;;;;;8.55;6.35;;;;;;;27.02;48.66;100543.91;5051601;28;20411;-83
2023/05/24 10:47:02;;;;;;;9.73;5.50;;;;;;;27.20;47.25;100545.97;5033797;28;20045;-84
2023/05/24 10:49:30;;;;;;;8.70;5.40;;;;;;;27.05;47.14;100551.53;5051302;28;20045;-84
2023/05/24 10:52:11;;;;;;;9.93;6.38;;;;;;;27.10;47.91;100548.38;5051260;28;20060;-84
2023/05/24 10:54:40;;;;;;;7.78;5.70;;;;;;;26.78;48.19;100548.97;5051015;28;20399;-83
2023/05/24 10:57:26;;;;;;;7.43;5.60;;;;;;;27.20;48.10;100534.72;5053358;28;20056;-84
2023/05/24 10:59:56;;;;;;;7.72;5.90;;;;;;;27.24;48.36;100533.53;5054878;28;20052;-83
2023/05/24 11:02:27;;;;;;;10.27;5.78;;;;;;;27.61;47.67;100540.09;5054765;28;20392;-84
2023/05/24 11:04:55;;;;;;;10.65;5.32;;;;;;;27.92;47.08;100545.34;5054688;28;20045;-84
2023/05/24 11:07:23;;;;;;;8.77;6.20;;;;;;;27.79;47.87;100536.50;5052061;28;20399;-83
2023/05/24 11:09:56;;;;;;;6.78;5.35;;;;;;;27.81;46.65;100527.66;5035908;28;20041;-83
2023/05/24 11:12:33;;;;;;;8.13;5.68;;;;;;;28.16;47.44;100532.47;5052080;28;20045;-83
2023/05/24 11:15:02;;;;;;;6.15;5.35;;;;;;;28.09;47.09;100520.44;5053832;28;20049;-83
2023/05/24 11:17:29;;;;;;;6.18;4.93;;;;;;;28.09;46.02;100518.41;5053697;28;20403;-83
2023/05/24 11:19:59;;;;;;;5.57;4.88;;;;;;;28.07;44.06;100520.00;5053596;28;20052;-83
2023/05/24 11:22:27;;;;;;;6.93;5.25;;;;;;;28.21;45.11;100522.84;5053245;28;20049;-83
2023/05/24 11:24:56;;;;;;;6.68;4.82;;;;;;;27.78;44.71;100523.63;5036252;28;20045;-83
2023/05/24 11:27:24;;;;;;;7.50;5.40;;;;;;;27.89;44.50;100523.63;5055404;28;20503;-83
2023/05/24 11:29:57;;;;;;;7.35;5.30;;;;;;;27.93;43.94;100523.63;5036575;28;20408;-83